createdAt,value
2023-05-20T00:00:26.053Z,0.00
2023-05-20T00:00:57.808Z,0.00
2023-05-20T00:01:29.924Z,0.00
2023-05-20T00:02:01.764Z,0.00
2023-05-20T00:02:17.908Z,0.00
2023-05-20T00:02:49.936Z,0.00
2023-05-20T00:03:33.935Z,0.00
2023-05-20T00:04:06.118Z,0.00
2023-05-20T00:04:37.499Z,0.00
2023-05-20T00:05:10.841Z,0.00
2023-05-20T00:05:41.746Z,0.00
2023-05-20T00:06:13.487Z,0.00
2023-05-20T00:06:45.445Z,0.00
2023-05-20T00:07:17.517Z,0.00
2023-05-20T00:07:33.539Z,0.00
2023-05-20T00:08:05.597Z,0.00
2023-05-20T00:08:49.566Z,0.00
2023-05-20T00:09:21.333Z,0.00
2023-05-20T00:09:53.477Z,0.00
2023-05-20T00:10:25.599Z,0.00
2023-05-20T00:10:57.463Z,0.00
2023-05-20T00:11:29.517Z,0.00
2023-05-20T00:12:01.239Z,0.00
2023-05-20T00:12:33.312Z,0.00
2023-05-20T00:13:05.437Z,0.00
2023-05-20T00:13:37.173Z,0.00
2023-05-20T00:14:09.556Z,0.00
2023-05-20T00:14:41.231Z,0.00
2023-05-20T00:15:14.531Z,0.00
2023-05-20T00:15:45.029Z,0.00
2023-05-20T00:16:17.140Z,0.00
2023-05-20T00:16:33.319Z,0.00
2023-05-20T00:17:17.274Z,0.00
2023-05-20T00:17:49.361Z,0.00
2023-05-20T00:18:21.047Z,0.00
2023-05-20T00:18:53.324Z,0.00
2023-05-20T00:19:25.137Z,0.00
2023-05-20T00:19:57.138Z,0.00
2023-05-20T00:20:29.320Z,0.00
2023-05-20T00:21:01.003Z,0.00
2023-05-20T00:21:33.056Z,0.00
2023-05-20T00:22:05.429Z,0.00
2023-05-20T00:22:36.800Z,0.00
2023-05-20T00:23:09.249Z,0.00
2023-05-20T00:23:40.776Z,0.00
2023-05-20T00:24:13.061Z,0.00
2023-05-20T00:24:44.706Z,0.00
2023-05-20T00:25:17.001Z,0.00
2023-05-20T00:25:33.213Z,0.00
2023-05-20T00:26:04.960Z,0.00
2023-05-20T00:26:48.842Z,0.00
2023-05-20T00:27:20.590Z,0.00
2023-05-20T00:27:52.558Z,0.00
2023-05-20T00:28:24.623Z,0.00
2023-05-20T00:28:56.733Z,0.00
2023-05-20T00:29:28.514Z,0.00
2023-05-20T00:30:01.693Z,0.00
2023-05-20T00:30:32.514Z,0.00
2023-05-20T00:31:04.716Z,0.00
2023-05-20T00:31:36.422Z,0.00
2023-05-20T00:32:08.550Z,0.00
2023-05-20T00:32:40.650Z,0.00
2023-05-20T00:33:12.614Z,0.00
2023-05-20T00:33:44.392Z,0.00
2023-05-20T00:34:16.505Z,0.00
2023-05-20T00:34:32.533Z,0.00
2023-05-20T00:35:16.622Z,0.00
2023-05-20T00:35:48.668Z,0.00
2023-05-20T00:36:20.405Z,0.00
2023-05-20T00:36:52.253Z,0.00
2023-05-20T00:37:24.341Z,0.00
2023-05-20T00:37:56.261Z,0.00
2023-05-20T00:38:28.283Z,0.00
2023-05-20T00:39:00.462Z,0.00
2023-05-20T00:39:32.247Z,0.00
2023-05-20T00:40:05.195Z,0.00
2023-05-20T00:40:36.181Z,0.00
2023-05-20T00:41:08.107Z,0.00
2023-05-20T00:41:40.538Z,0.00
2023-05-20T00:42:12.289Z,0.00
2023-05-20T00:42:44.112Z,0.00
2023-05-20T00:43:16.054Z,0.00
2023-05-20T00:43:48.420Z,0.00
2023-05-20T00:44:19.954Z,0.00
2023-05-20T00:44:51.908Z,0.00
2023-05-20T00:45:24.325Z,0.00
2023-05-20T00:45:55.924Z,0.00
2023-05-20T00:46:28.226Z,0.00
2023-05-20T00:47:00.017Z,0.00
2023-05-20T00:47:31.805Z,0.00
2023-05-20T00:48:04.623Z,0.00
2023-05-20T00:48:35.933Z,0.00
2023-05-20T00:49:07.736Z,0.00
2023-05-20T00:49:39.947Z,0.00
2023-05-20T00:50:12.160Z,0.00
2023-05-20T00:50:43.723Z,0.00
2023-05-20T00:51:15.750Z,0.00
2023-05-20T00:51:31.742Z,0.00
2023-05-20T00:52:15.662Z,0.00
2023-05-20T00:52:31.668Z,0.00
2023-05-20T00:53:15.768Z,0.00
2023-05-20T00:53:47.828Z,0.00
2023-05-20T00:54:19.747Z,0.00
2023-05-20T00:54:51.507Z,0.00
2023-05-20T00:55:25.481Z,0.00
2023-05-20T00:55:55.574Z,0.00
2023-05-20T00:56:27.454Z,0.00
2023-05-20T00:56:59.413Z,0.00
2023-05-20T00:57:31.464Z,0.00
2023-05-20T00:58:04.297Z,0.00
2023-05-20T00:58:35.197Z,0.00
2023-05-20T00:59:07.384Z,0.00
2023-05-20T00:59:39.488Z,0.00
2023-05-20T01:00:12.283Z,0.00
2023-05-20T01:00:43.218Z,0.00
2023-05-20T01:01:15.216Z,0.00
2023-05-20T01:01:47.314Z,0.00
2023-05-20T01:02:19.446Z,0.00
2023-05-20T01:02:51.238Z,0.00
2023-05-20T01:03:23.306Z,0.00
2023-05-20T01:03:55.288Z,0.00
2023-05-20T01:04:27.260Z,0.00
2023-05-20T01:04:59.127Z,0.00
2023-05-20T01:05:15.492Z,0.00
2023-05-20T01:05:59.349Z,0.00
2023-05-20T01:06:31.114Z,0.00
2023-05-20T01:07:03.788Z,0.00
2023-05-20T01:07:34.831Z,0.00
2023-05-20T01:08:06.986Z,0.00
2023-05-20T01:08:39.292Z,0.00
2023-05-20T01:09:10.843Z,0.00
2023-05-20T01:09:42.857Z,0.00
2023-05-20T01:10:15.213Z,0.00
2023-05-20T01:10:46.954Z,0.00
2023-05-20T01:11:19.115Z,0.00
2023-05-20T01:11:50.794Z,0.00
2023-05-20T01:12:22.815Z,0.00
2023-05-20T01:12:54.833Z,0.00
2023-05-20T01:13:26.656Z,0.00
2023-05-20T01:13:58.794Z,0.00
2023-05-20T01:14:30.698Z,0.00
2023-05-20T01:15:05.380Z,0.00
2023-05-20T01:15:34.704Z,0.00
2023-05-20T01:16:06.602Z,0.00
2023-05-20T01:16:38.909Z,0.00
2023-05-20T01:17:10.747Z,0.00
2023-05-20T01:17:42.510Z,0.00
2023-05-20T01:18:14.487Z,0.00
2023-05-20T01:18:30.712Z,0.00
2023-05-20T01:19:02.999Z,0.00
2023-05-20T01:19:46.590Z,0.00
2023-05-20T01:20:19.002Z,0.00
2023-05-20T01:20:50.357Z,0.00
2023-05-20T01:21:22.375Z,0.00
2023-05-20T01:21:54.483Z,0.00
2023-05-20T01:22:26.248Z,0.00
2023-05-20T01:22:58.348Z,0.00
2023-05-20T01:23:30.531Z,0.00
2023-05-20T01:24:02.629Z,0.00
2023-05-20T01:24:34.164Z,0.00
2023-05-20T01:25:06.524Z,0.00
2023-05-20T01:25:38.394Z,0.00
2023-05-20T01:26:10.423Z,0.00
2023-05-20T01:26:42.072Z,0.00
2023-05-20T01:27:14.041Z,0.00
2023-05-20T01:27:30.495Z,0.00
2023-05-20T01:28:14.134Z,0.00
2023-05-20T01:28:46.174Z,0.00
2023-05-20T01:29:18.275Z,0.00
2023-05-20T01:29:50.029Z,0.00
2023-05-20T01:30:22.527Z,0.00
2023-05-20T01:30:54.147Z,0.00
2023-05-20T01:31:26.050Z,0.00
2023-05-20T01:31:57.956Z,0.00
2023-05-20T01:32:14.055Z,0.00
2023-05-20T01:32:46.026Z,0.00
2023-05-20T01:33:02.425Z,0.00
2023-05-20T01:33:33.875Z,0.00
2023-05-20T01:34:05.838Z,0.00
2023-05-20T01:34:37.932Z,0.00
2023-05-20T01:35:10.354Z,0.00
2023-05-20T01:35:41.772Z,0.00
2023-05-20T01:36:13.919Z,0.00
2023-05-20T01:36:30.216Z,0.00
2023-05-20T01:37:02.169Z,0.00
2023-05-20T01:37:45.843Z,0.00
2023-05-20T01:38:17.478Z,0.00
2023-05-20T01:38:49.909Z,0.00
2023-05-20T01:39:21.723Z,0.00
2023-05-20T01:39:53.615Z,0.00
2023-05-20T01:40:25.839Z,0.00
2023-05-20T01:40:57.534Z,0.00
2023-05-20T01:41:29.695Z,0.00
2023-05-20T01:42:01.739Z,0.00
2023-05-20T01:42:33.481Z,0.00
2023-05-20T01:43:05.449Z,0.00
2023-05-20T01:43:37.536Z,0.00
2023-05-20T01:44:09.735Z,0.00
2023-05-20T01:44:41.248Z,0.00
2023-05-20T01:45:14.268Z,0.00
2023-05-20T01:45:29.622Z,0.00
2023-05-20T01:46:13.634Z,0.00
2023-05-20T01:46:45.521Z,0.00
2023-05-20T01:47:17.181Z,0.00
2023-05-20T01:47:49.588Z,0.00
2023-05-20T01:48:21.317Z,0.00
2023-05-20T01:48:53.346Z,0.00
2023-05-20T01:49:25.442Z,0.00
2023-05-20T01:49:57.328Z,0.00
2023-05-20T01:50:29.749Z,0.00
2023-05-20T01:51:01.608Z,0.00
2023-05-20T01:51:33.191Z,0.00
2023-05-20T01:52:05.256Z,0.00
2023-05-20T01:52:37.229Z,0.00
2023-05-20T01:53:09.400Z,0.00
2023-05-20T01:53:41.017Z,0.00
2023-05-20T01:54:13.141Z,0.00
2023-05-20T01:54:29.251Z,0.00
2023-05-20T01:55:01.808Z,0.00
2023-05-20T01:55:45.114Z,0.00
2023-05-20T01:56:16.918Z,0.00
2023-05-20T01:56:49.128Z,0.00
2023-05-20T01:57:20.947Z,0.00
2023-05-20T01:57:53.002Z,0.00
2023-05-20T01:58:24.798Z,0.00
2023-05-20T01:58:56.805Z,0.00
2023-05-20T01:59:13.076Z,0.00
2023-05-20T01:59:56.792Z,0.00
2023-05-20T02:00:29.504Z,0.00
2023-05-20T02:01:00.883Z,0.00
2023-05-20T02:01:32.742Z,0.00
2023-05-20T02:02:05.173Z,0.00
2023-05-20T02:02:36.995Z,0.00
2023-05-20T02:03:08.801Z,0.00
2023-05-20T02:03:40.755Z,0.00
2023-05-20T02:04:12.784Z,0.00
2023-05-20T02:04:44.641Z,0.00
2023-05-20T02:05:16.863Z,0.00
2023-05-20T02:05:49.031Z,0.00
2023-05-20T02:06:20.632Z,0.00
2023-05-20T02:06:52.711Z,0.00
2023-05-20T02:07:24.512Z,0.00
2023-05-20T02:07:56.393Z,0.00
2023-05-20T02:08:12.722Z,0.00
2023-05-20T02:08:44.392Z,0.00
2023-05-20T02:09:00.688Z,0.00
2023-05-20T02:09:32.334Z,0.00
2023-05-20T02:10:05.081Z,0.00
2023-05-20T02:10:36.375Z,0.00
2023-05-20T02:11:08.496Z,0.00
2023-05-20T02:11:40.333Z,0.00
2023-05-20T02:12:13.269Z,0.00
2023-05-20T02:12:28.625Z,0.00
2023-05-20T02:13:00.213Z,0.00
2023-05-20T02:13:44.330Z,0.00
2023-05-20T02:14:16.173Z,0.00
2023-05-20T02:14:48.224Z,0.00
2023-05-20T02:15:20.775Z,0.00
2023-05-20T02:15:52.305Z,0.00
2023-05-20T02:16:24.128Z,0.00
2023-05-20T02:16:56.270Z,0.00
2023-05-20T02:17:12.261Z,0.00
2023-05-20T02:17:56.141Z,0.00
2023-05-20T02:18:28.150Z,0.00
2023-05-20T02:19:00.032Z,0.00
2023-05-20T02:19:31.984Z,0.00
2023-05-20T02:20:04.713Z,0.00
2023-05-20T02:20:36.028Z,0.00
2023-05-20T02:21:07.824Z,0.00
2023-05-20T02:21:39.845Z,0.00
2023-05-20T02:22:11.962Z,0.00
2023-05-20T02:22:43.884Z,0.00
2023-05-20T02:23:15.803Z,0.00
2023-05-20T02:23:47.748Z,0.00
2023-05-20T02:24:20.070Z,0.00
2023-05-20T02:24:51.828Z,0.00
2023-05-20T02:25:23.880Z,0.00
2023-05-20T02:25:55.719Z,0.00
2023-05-20T02:26:11.833Z,0.00
2023-05-20T02:26:43.652Z,0.00
2023-05-20T02:26:59.733Z,0.00
2023-05-20T02:27:31.596Z,0.00
2023-05-20T02:28:03.985Z,0.00
2023-05-20T02:28:35.495Z,0.00
2023-05-20T02:29:07.708Z,0.00
2023-05-20T02:29:39.678Z,0.00
2023-05-20T02:30:12.932Z,0.00
2023-05-20T02:30:27.613Z,0.00
2023-05-20T02:30:59.807Z,0.00
2023-05-20T02:31:43.657Z,0.00
2023-05-20T02:32:15.348Z,0.00
2023-05-20T02:32:47.375Z,0.00
2023-05-20T02:33:19.814Z,0.00
2023-05-20T02:33:51.552Z,0.00
2023-05-20T02:34:23.345Z,0.00
2023-05-20T02:34:55.302Z,0.00
2023-05-20T02:35:11.748Z,0.00
2023-05-20T02:35:55.325Z,0.00
2023-05-20T02:36:27.271Z,0.00
2023-05-20T02:36:59.408Z,0.00
2023-05-20T02:37:31.180Z,0.00
2023-05-20T02:38:03.504Z,0.00
2023-05-20T02:38:35.238Z,0.00
2023-05-20T02:39:07.107Z,0.00
2023-05-20T02:39:39.263Z,0.00
2023-05-20T02:40:11.465Z,0.00
2023-05-20T02:40:43.217Z,0.00
2023-05-20T02:41:14.960Z,0.00
2023-05-20T02:41:47.051Z,0.00
2023-05-20T02:42:19.388Z,0.00
2023-05-20T02:42:51.025Z,0.00
2023-05-20T02:43:22.974Z,0.00
2023-05-20T02:43:54.849Z,0.00
2023-05-20T02:44:11.146Z,0.00
2023-05-20T02:44:43.050Z,0.00
2023-05-20T02:44:59.291Z,0.00
2023-05-20T02:45:31.145Z,0.00
2023-05-20T02:46:03.419Z,0.00
2023-05-20T02:46:34.918Z,0.00
2023-05-20T02:47:06.952Z,0.00
2023-05-20T02:47:39.045Z,0.00
2023-05-20T02:48:10.833Z,0.00
2023-05-20T02:48:26.893Z,0.00
2023-05-20T02:48:58.933Z,0.00
2023-05-20T02:49:42.902Z,0.00
2023-05-20T02:50:15.022Z,0.00
2023-05-20T02:50:46.675Z,0.00
2023-05-20T02:51:19.023Z,0.00
2023-05-20T02:51:50.760Z,0.00
2023-05-20T02:52:22.698Z,0.00
2023-05-20T02:52:54.494Z,0.00
2023-05-20T02:53:10.785Z,0.00
2023-05-20T02:53:54.555Z,0.00
2023-05-20T02:54:26.707Z,0.00
2023-05-20T02:54:58.581Z,0.00
2023-05-20T02:55:30.736Z,0.00
2023-05-20T02:56:02.904Z,0.00
2023-05-20T02:56:34.635Z,0.00
2023-05-20T02:57:06.279Z,0.00
2023-05-20T02:57:38.542Z,0.00
2023-05-20T02:58:10.470Z,0.00
2023-05-20T02:58:42.758Z,0.00
2023-05-20T02:59:14.216Z,0.00
2023-05-20T02:59:46.249Z,0.00
2023-05-20T03:00:19.380Z,0.00
2023-05-20T03:00:50.453Z,0.00
2023-05-20T03:01:22.299Z,0.00
2023-05-20T03:01:54.177Z,0.00
2023-05-20T03:02:26.304Z,0.00
2023-05-20T03:02:58.484Z,0.00
2023-05-20T03:03:30.254Z,0.00
2023-05-20T03:04:03.630Z,0.00
2023-05-20T03:04:34.142Z,0.00
2023-05-20T03:05:06.350Z,0.00
2023-05-20T03:05:38.185Z,0.00
2023-05-20T03:06:10.079Z,0.00
2023-05-20T03:06:26.173Z,0.00
2023-05-20T03:06:58.215Z,0.00
2023-05-20T03:07:42.071Z,0.00
2023-05-20T03:08:14.017Z,0.00
2023-05-20T03:08:45.993Z,0.00
2023-05-20T03:09:17.960Z,0.00
2023-05-20T03:09:50.390Z,0.00
2023-05-20T03:10:21.962Z,0.00
2023-05-20T03:10:53.869Z,0.00
2023-05-20T03:11:25.933Z,0.00
2023-05-20T03:11:58.026Z,0.00
2023-05-20T03:12:30.160Z,0.00
2023-05-20T03:13:02.311Z,0.00
2023-05-20T03:13:34.475Z,0.00
2023-05-20T03:14:05.942Z,0.00
2023-05-20T03:14:37.707Z,0.00
2023-05-20T03:15:11.604Z,0.00
2023-05-20T03:15:25.943Z,0.00
2023-05-20T03:16:09.831Z,0.00
2023-05-20T03:16:41.851Z,0.00
2023-05-20T03:17:13.557Z,0.00
2023-05-20T03:17:45.505Z,0.00
2023-05-20T03:18:17.557Z,0.00
2023-05-20T03:18:49.785Z,0.00
2023-05-20T03:19:21.525Z,0.00
2023-05-20T03:19:53.514Z,0.00
2023-05-20T03:20:09.964Z,0.00
2023-05-20T03:20:41.528Z,0.00
2023-05-20T03:20:57.734Z,0.00
2023-05-20T03:21:29.757Z,0.00
2023-05-20T03:22:01.810Z,0.00
2023-05-20T03:22:33.335Z,0.00
2023-05-20T03:23:05.491Z,0.00
2023-05-20T03:23:37.317Z,0.00
2023-05-20T03:24:09.346Z,0.00
2023-05-20T03:24:25.430Z,0.00
2023-05-20T03:24:57.154Z,0.00
2023-05-20T03:25:41.601Z,0.00
2023-05-20T03:26:13.161Z,0.00
2023-05-20T03:26:45.185Z,0.00
2023-05-20T03:27:17.236Z,0.00
2023-05-20T03:27:49.447Z,0.00
2023-05-20T03:28:21.292Z,0.00
2023-05-20T03:28:53.198Z,0.00
2023-05-20T03:29:25.165Z,0.00
2023-05-20T03:29:57.019Z,0.00
2023-05-20T03:30:29.954Z,0.00
2023-05-20T03:31:01.511Z,0.00
2023-05-20T03:31:33.210Z,0.00
2023-05-20T03:32:04.910Z,0.00
2023-05-20T03:32:36.939Z,0.00
2023-05-20T03:33:09.193Z,0.00
2023-05-20T03:33:41.008Z,0.00
2023-05-20T03:34:12.850Z,0.36
2023-05-20T03:34:29.204Z,0.00
2023-05-20T03:35:13.097Z,0.00
2023-05-20T03:35:44.901Z,0.00
2023-05-20T03:36:16.981Z,0.00
2023-05-20T03:36:48.840Z,0.00
2023-05-20T03:37:20.745Z,0.00
2023-05-20T03:37:52.776Z,0.00
2023-05-20T03:38:24.816Z,0.00
2023-05-20T03:38:56.648Z,0.00
2023-05-20T03:39:28.722Z,0.36
2023-05-20T03:40:01.073Z,0.36
2023-05-20T03:40:32.746Z,0.00
2023-05-20T03:41:04.739Z,0.00
2023-05-20T03:41:36.577Z,0.36
2023-05-20T03:42:08.845Z,0.85
2023-05-20T03:42:40.827Z,0.85
2023-05-20T03:43:12.610Z,0.85
2023-05-20T03:43:44.511Z,0.36
2023-05-20T03:44:16.532Z,0.36
2023-05-20T03:44:48.522Z,0.36
2023-05-20T03:45:21.238Z,0.85
2023-05-20T03:45:52.694Z,1.71
2023-05-20T03:46:24.619Z,1.22
2023-05-20T03:46:56.544Z,0.36
2023-05-20T03:47:28.611Z,0.85
2023-05-20T03:48:00.837Z,1.71
2023-05-20T03:48:32.629Z,1.71
2023-05-20T03:49:04.745Z,1.71
2023-05-20T03:49:36.359Z,1.22
2023-05-20T03:50:08.850Z,1.71
2023-05-20T03:50:24.594Z,1.71
2023-05-20T03:51:08.436Z,1.71
2023-05-20T03:51:40.427Z,2.57
2023-05-20T03:52:12.243Z,2.08
2023-05-20T03:52:44.270Z,2.08
2023-05-20T03:53:16.295Z,2.57
2023-05-20T03:53:48.409Z,2.57
2023-05-20T03:54:20.316Z,2.94
2023-05-20T03:54:52.190Z,3.43
2023-05-20T03:55:24.639Z,2.94
2023-05-20T03:55:56.176Z,2.57
2023-05-20T03:56:27.979Z,3.43
2023-05-20T03:57:00.398Z,3.43
2023-05-20T03:57:32.152Z,3.43
2023-05-20T03:58:04.362Z,3.43
2023-05-20T03:58:36.006Z,3.79
2023-05-20T03:59:08.052Z,3.43
2023-05-20T03:59:25.422Z,2.94
2023-05-20T03:59:56.039Z,3.79
2023-05-20T04:00:40.520Z,3.43
2023-05-20T04:01:11.834Z,3.79
2023-05-20T04:01:43.844Z,3.79
2023-05-20T04:02:15.877Z,3.79
2023-05-20T04:02:48.055Z,2.94
2023-05-20T04:03:20.018Z,3.79
2023-05-20T04:03:51.726Z,3.79
2023-05-20T04:04:23.938Z,3.79
2023-05-20T04:04:55.979Z,3.79
2023-05-20T04:05:27.905Z,3.79
2023-05-20T04:05:59.973Z,3.79
2023-05-20T04:06:31.699Z,3.43
2023-05-20T04:07:05.486Z,3.79
2023-05-20T04:07:35.582Z,4.28
2023-05-20T04:08:07.803Z,4.77
2023-05-20T04:08:23.764Z,4.77
2023-05-20T04:09:07.975Z,4.28
2023-05-20T04:09:39.890Z,4.77
2023-05-20T04:10:11.784Z,5.14
2023-05-20T04:10:43.557Z,5.99
2023-05-20T04:11:15.621Z,5.63
2023-05-20T04:11:47.573Z,5.99
2023-05-20T04:12:19.521Z,6.85
2023-05-20T04:12:51.419Z,6.48
2023-05-20T04:13:23.610Z,6.85
2023-05-20T04:13:55.438Z,5.99
2023-05-20T04:14:27.307Z,6.48
2023-05-20T04:14:59.760Z,7.70
2023-05-20T04:15:31.761Z,6.48
2023-05-20T04:16:04.010Z,6.48
2023-05-20T04:16:35.240Z,8.19
2023-05-20T04:17:07.152Z,8.56
2023-05-20T04:17:23.359Z,8.19
2023-05-20T04:17:55.139Z,9.05
2023-05-20T04:18:39.596Z,9.54
2023-05-20T04:19:11.201Z,9.91
2023-05-20T04:19:43.130Z,10.39
2023-05-20T04:20:15.426Z,10.39
2023-05-20T04:20:47.178Z,10.77
2023-05-20T04:21:19.216Z,11.62
2023-05-20T04:21:51.187Z,11.62
2023-05-20T04:22:07.221Z,12.11
2023-05-20T04:22:51.120Z,13.33
2023-05-20T04:23:23.168Z,13.82
2023-05-20T04:23:54.870Z,14.31
2023-05-20T04:24:27.072Z,14.68
2023-05-20T04:24:59.221Z,15.53
2023-05-20T04:25:31.305Z,16.02
2023-05-20T04:26:03.501Z,17.73
2023-05-20T04:26:34.837Z,16.88
2023-05-20T04:27:06.786Z,16.88
2023-05-20T04:27:39.100Z,17.73
2023-05-20T04:28:10.902Z,18.11
2023-05-20T04:28:42.999Z,18.60
2023-05-20T04:29:14.810Z,20.31
2023-05-20T04:29:46.932Z,21.16
2023-05-20T04:30:19.518Z,22.51
2023-05-20T04:30:50.841Z,23.36
2023-05-20T04:31:06.962Z,23.36
2023-05-20T04:31:38.990Z,24.22
2023-05-20T04:31:54.901Z,24.71
2023-05-20T04:32:26.619Z,25.07
2023-05-20T04:32:58.879Z,25.07
2023-05-20T04:33:14.746Z,25.56
2023-05-20T04:33:46.506Z,25.07
2023-05-20T04:34:30.784Z,25.07
2023-05-20T04:35:03.691Z,24.71
2023-05-20T04:35:34.755Z,25.07
2023-05-20T04:36:06.602Z,25.07
2023-05-20T04:36:39.087Z,25.94
2023-05-20T04:37:10.301Z,25.56
2023-05-20T04:37:42.705Z,26.42
2023-05-20T04:38:14.591Z,26.42
2023-05-20T04:38:46.433Z,26.79
2023-05-20T04:39:18.663Z,25.07
2023-05-20T04:39:50.797Z,23.85
2023-05-20T04:40:06.706Z,24.22
2023-05-20T04:40:50.484Z,24.22
2023-05-20T04:41:22.416Z,23.36
2023-05-20T04:41:54.293Z,24.22
2023-05-20T04:42:26.232Z,25.07
2023-05-20T04:42:58.225Z,27.28
2023-05-20T04:43:30.655Z,28.99
2023-05-20T04:44:02.905Z,31.19
2023-05-20T04:44:34.057Z,32.05
2023-05-20T04:45:08.425Z,33.76
2023-05-20T04:45:38.504Z,33.76
2023-05-20T04:46:10.160Z,33.76
2023-05-20T04:46:42.177Z,33.76
2023-05-20T04:47:14.143Z,34.25
2023-05-20T04:47:46.238Z,35.11
2023-05-20T04:48:17.944Z,35.48
2023-05-20T04:48:50.044Z,36.82
2023-05-20T04:49:22.053Z,36.82
2023-05-20T04:49:54.062Z,37.19
2023-05-20T04:50:26.161Z,37.19
2023-05-20T04:50:57.969Z,38.17
2023-05-20T04:51:30.225Z,40.24
2023-05-20T04:52:02.254Z,40.73
2023-05-20T04:52:33.763Z,41.96
2023-05-20T04:53:05.975Z,41.10
2023-05-20T04:53:38.010Z,39.88
2023-05-20T04:54:09.895Z,40.73
2023-05-20T04:54:41.604Z,39.88
2023-05-20T04:55:13.858Z,41.10
2023-05-20T04:55:45.816Z,39.88
2023-05-20T04:56:17.597Z,39.39
2023-05-20T04:56:49.732Z,37.68
2023-05-20T04:57:21.744Z,38.17
2023-05-20T04:57:53.758Z,38.17
2023-05-20T04:58:25.508Z,37.19
2023-05-20T04:58:57.594Z,36.82
2023-05-20T04:59:29.801Z,35.97
2023-05-20T05:00:10.224Z,35.48
2023-05-20T05:00:33.483Z,34.62
2023-05-20T05:01:05.797Z,36.33
2023-05-20T05:01:37.536Z,35.97
2023-05-20T05:02:09.681Z,36.33
2023-05-20T05:02:41.370Z,36.82
2023-05-20T05:03:13.276Z,35.97
2023-05-20T05:03:45.332Z,36.82
2023-05-20T05:04:17.456Z,37.19
2023-05-20T05:04:49.446Z,38.17
2023-05-20T05:05:05.851Z,38.53
2023-05-20T05:05:37.348Z,39.02
2023-05-20T05:05:53.678Z,38.17
2023-05-20T05:06:25.209Z,39.02
2023-05-20T05:06:57.309Z,41.96
2023-05-20T05:07:29.597Z,42.45
2023-05-20T05:08:02.110Z,44.16
2023-05-20T05:08:33.107Z,45.02
2023-05-20T05:09:05.206Z,49.42
2023-05-20T05:09:21.433Z,49.42
2023-05-20T05:09:52.944Z,51.14
2023-05-20T05:10:37.486Z,51.14
2023-05-20T05:11:09.255Z,54.19
2023-05-20T05:11:40.925Z,53.70
2023-05-20T05:12:13.000Z,52.85
2023-05-20T05:12:45.082Z,52.48
2023-05-20T05:13:16.995Z,52.85
2023-05-20T05:13:49.083Z,52.48
2023-05-20T05:14:21.053Z,50.65
2023-05-20T05:14:52.702Z,50.65
2023-05-20T05:15:26.766Z,51.14
2023-05-20T05:15:56.890Z,51.50
2023-05-20T05:16:29.074Z,51.99
2023-05-20T05:17:01.143Z,53.70
2023-05-20T05:17:32.779Z,53.34
2023-05-20T05:18:04.981Z,51.50
2023-05-20T05:18:36.870Z,49.79
2023-05-20T05:19:09.237Z,48.07
2023-05-20T05:19:40.949Z,48.93
2023-05-20T05:20:12.965Z,49.79
2023-05-20T05:20:44.747Z,50.28
2023-05-20T05:21:16.557Z,50.28
2023-05-20T05:21:48.599Z,48.93
2023-05-20T05:22:04.750Z,48.93
2023-05-20T05:22:36.469Z,50.28
2023-05-20T05:22:52.590Z,51.14
2023-05-20T05:23:24.430Z,54.19
2023-05-20T05:23:58.389Z,55.05
2023-05-20T05:24:28.550Z,56.76
2023-05-20T05:25:01.224Z,56.76
2023-05-20T05:25:32.474Z,56.27
2023-05-20T05:26:04.690Z,55.41
2023-05-20T05:26:20.709Z,54.56
2023-05-20T05:26:52.289Z,54.56
2023-05-20T05:27:36.462Z,56.76
2023-05-20T05:28:08.410Z,58.11
2023-05-20T05:28:40.870Z,57.25
2023-05-20T05:29:12.279Z,57.25
2023-05-20T05:29:44.353Z,57.25
2023-05-20T05:30:17.333Z,60.19
2023-05-20T05:30:48.211Z,61.17
2023-05-20T05:31:04.859Z,62.02
2023-05-20T05:31:48.377Z,62.88
2023-05-20T05:32:20.737Z,62.88
2023-05-20T05:32:52.245Z,63.24
2023-05-20T05:33:24.239Z,64.96
2023-05-20T05:33:55.999Z,66.80
2023-05-20T05:34:28.223Z,66.80
2023-05-20T05:35:00.502Z,66.31
2023-05-20T05:35:32.118Z,65.94
2023-05-20T05:36:04.375Z,68.51
2023-05-20T05:36:36.098Z,70.22
2023-05-20T05:37:07.858Z,71.07
2023-05-20T05:37:40.268Z,69.36
2023-05-20T05:38:11.973Z,67.65
2023-05-20T05:38:43.905Z,64.96
2023-05-20T05:39:15.859Z,65.45
2023-05-20T05:39:47.760Z,63.73
2023-05-20T05:40:20.263Z,63.73
2023-05-20T05:40:52.005Z,65.94
2023-05-20T05:41:23.776Z,66.80
2023-05-20T05:41:55.756Z,67.65
2023-05-20T05:42:27.731Z,68.02
2023-05-20T05:43:00.067Z,68.02
2023-05-20T05:43:31.898Z,68.02
2023-05-20T05:44:04.172Z,68.87
2023-05-20T05:44:35.693Z,70.22
2023-05-20T05:45:08.704Z,70.71
2023-05-20T05:45:39.934Z,71.07
2023-05-20T05:46:11.570Z,73.28
2023-05-20T05:46:43.588Z,78.90
2023-05-20T05:47:16.800Z,81.97
2023-05-20T05:47:47.408Z,84.53
2023-05-20T05:48:04.334Z,86.73
2023-05-20T05:48:47.472Z,89.31
2023-05-20T05:49:19.657Z,96.27
2023-05-20T05:49:51.557Z,110.59
2023-05-20T05:50:23.650Z,91.87
2023-05-20T05:50:55.453Z,84.53
2023-05-20T05:51:27.373Z,86.73
2023-05-20T05:51:59.887Z,127.47
2023-05-20T05:52:31.428Z,80.62
2023-05-20T05:53:04.115Z,80.25
2023-05-20T05:53:35.279Z,79.76
2023-05-20T05:54:07.074Z,78.90
2023-05-20T05:54:39.824Z,78.90
2023-05-20T05:55:11.481Z,79.27
2023-05-20T05:55:43.228Z,80.62
2023-05-20T05:56:15.209Z,82.82
2023-05-20T05:56:46.995Z,88.45
2023-05-20T05:57:05.843Z,91.87
2023-05-20T05:57:36.052Z,101.41
2023-05-20T05:57:51.181Z,102.27
2023-05-20T05:58:22.989Z,100.19
2023-05-20T05:58:55.033Z,100.19
2023-05-20T05:59:27.090Z,97.13
2023-05-20T05:59:59.303Z,96.65
2023-05-20T06:00:31.780Z,93.58
2023-05-20T06:01:03.974Z,91.87
2023-05-20T06:01:34.910Z,88.82
2023-05-20T06:02:07.110Z,87.96
2023-05-20T06:02:39.498Z,89.31
2023-05-20T06:03:10.957Z,88.82
2023-05-20T06:03:43.183Z,87.59
2023-05-20T06:04:15.018Z,87.10
2023-05-20T06:04:46.745Z,93.22
2023-05-20T06:05:04.588Z,97.13
2023-05-20T06:05:46.751Z,102.27
2023-05-20T06:06:18.985Z,97.99
2023-05-20T06:06:50.973Z,91.51
2023-05-20T06:07:22.706Z,89.31
2023-05-20T06:07:54.689Z,87.59
2023-05-20T06:08:26.702Z,88.82
2023-05-20T06:08:59.001Z,90.65
2023-05-20T06:09:30.788Z,93.22
2023-05-20T06:10:03.532Z,94.93
2023-05-20T06:10:34.726Z,92.36
2023-05-20T06:11:06.951Z,91.02
2023-05-20T06:11:38.520Z,94.56
2023-05-20T06:12:12.576Z,99.70
2023-05-20T06:12:42.526Z,107.90
2023-05-20T06:13:14.480Z,113.16
2023-05-20T06:13:46.455Z,115.36
2023-05-20T06:14:18.482Z,114.02
2023-05-20T06:14:50.557Z,113.16
2023-05-20T06:15:23.721Z,112.30
2023-05-20T06:15:54.313Z,115.73
2023-05-20T06:16:26.692Z,120.13
2023-05-20T06:16:58.716Z,175.67
2023-05-20T06:17:30.533Z,111.44
2023-05-20T06:18:03.173Z,111.82
2023-05-20T06:18:34.237Z,112.30
2023-05-20T06:19:06.294Z,115.36
2023-05-20T06:19:38.564Z,120.99
2023-05-20T06:20:10.805Z,125.27
2023-05-20T06:20:42.391Z,144.85
2023-05-20T06:21:14.256Z,139.22
2023-05-20T06:21:46.201Z,134.44
2023-05-20T06:22:18.308Z,138.73
2023-05-20T06:22:34.468Z,128.82
2023-05-20T06:23:06.128Z,129.68
2023-05-20T06:23:50.443Z,138.36
2023-05-20T06:24:24.348Z,170.90
2023-05-20T06:24:54.186Z,139.58
2023-05-20T06:25:27.216Z,140.93
2023-05-20T06:25:58.394Z,143.50
2023-05-20T06:26:30.284Z,153.53
2023-05-20T06:27:02.612Z,148.27
2023-05-20T06:27:18.230Z,145.70
2023-05-20T06:28:02.471Z,154.39
2023-05-20T06:28:34.137Z,153.90
2023-05-20T06:29:06.057Z,160.02
2023-05-20T06:29:38.043Z,142.64
2023-05-20T06:30:11.856Z,141.78
2023-05-20T06:30:42.083Z,138.36
2023-05-20T06:31:13.985Z,134.81
2023-05-20T06:31:45.947Z,131.39
2023-05-20T06:32:19.286Z,133.95
2023-05-20T06:32:50.255Z,138.73
2023-05-20T06:33:21.905Z,143.50
2023-05-20T06:33:53.939Z,140.44
2023-05-20T06:34:25.909Z,138.36
2023-05-20T06:34:57.754Z,172.98
2023-05-20T06:35:30.905Z,153.04
2023-05-20T06:36:01.990Z,143.13
2023-05-20T06:36:33.924Z,144.36
2023-05-20T06:37:05.631Z,142.64
2023-05-20T06:37:37.830Z,137.51
2023-05-20T06:38:10.139Z,130.90
2023-05-20T06:38:41.696Z,126.61
2023-05-20T06:39:13.471Z,127.47
2023-05-20T06:39:45.554Z,131.39
2023-05-20T06:40:03.025Z,133.59
2023-05-20T06:40:45.509Z,142.27
2023-05-20T06:41:17.535Z,141.42
2023-05-20T06:41:49.588Z,141.78
2023-05-20T06:42:21.562Z,138.73
2023-05-20T06:42:53.491Z,134.44
2023-05-20T06:43:25.351Z,132.24
2023-05-20T06:43:57.276Z,131.88
2023-05-20T06:44:29.704Z,137.51
2023-05-20T06:45:05.702Z,143.50
2023-05-20T06:45:33.675Z,147.90
2023-05-20T06:46:05.619Z,153.90
2023-05-20T06:46:37.294Z,159.53
2023-05-20T06:47:09.558Z,168.21
2023-05-20T06:47:41.632Z,160.02
2023-05-20T06:48:13.170Z,155.24
2023-05-20T06:48:45.201Z,152.19
2023-05-20T06:49:17.205Z,152.19
2023-05-20T06:49:49.467Z,154.75
2023-05-20T06:50:21.439Z,153.04
2023-05-20T06:50:53.165Z,148.76
2023-05-20T06:51:26.194Z,145.21
2023-05-20T06:51:57.070Z,143.13